sensor_id;sensor_type;location;lat;lon;timestamp;P1;durP1;ratioP1;P2;durP2;ratioP2
10910;SDS011;5508;49.150;11.030;2023-09-08T00:00:34;11.77;;;8.40;;
10910;SDS011;5508;49.150;11.030;2023-09-08T00:03:34;10.77;;;7.23;;
10910;SDS011;5508;49.150;11.030;2023-09-08T00:06:35;8.30;;;7.50;;
10910;SDS011;5508;49.150;11.030;2023-09-08T00:09:35;8.60;;;7.77;;
10910;SDS011;5508;49.150;11.030;2023-09-08T00:12:36;9.40;;;8.00;;
10910;SDS011;5508;49.150;11.030;2023-09-08T00:15:36;8.77;;;7.30;;
10910;SDS011;5508;49.150;11.030;2023-09-08T00:18:37;10.93;;;7.23;;
10910;SDS011;5508;49.150;11.030;2023-09-08T00:21:38;9.23;;;7.97;;
10910;SDS011;5508;49.150;11.030;2023-09-08T00:24:38;8.93;;;7.07;;
10910;SDS011;5508;49.150;11.030;2023-09-08T00:27:39;8.97;;;7.27;;
10910;SDS011;5508;49.150;11.030;2023-09-08T00:30:40;8.77;;;7.80;;
10910;SDS011;5508;49.150;11.030;2023-09-08T00:33:40;8.63;;;7.73;;
10910;SDS011;5508;49.150;11.030;2023-09-08T00:36:43;10.40;;;7.00;;
10910;SDS011;5508;49.150;11.030;2023-09-08T00:39:44;10.77;;;7.27;;
10910;SDS011;5508;49.150;11.030;2023-09-08T00:42:45;8.20;;;7.40;;
10910;SDS011;5508;49.150;11.030;2023-09-08T00:45:45;12.97;;;7.60;;
10910;SDS011;5508;49.150;11.030;2023-09-08T00:48:46;9.37;;;7.40;;
10910;SDS011;5508;49.150;11.030;2023-09-08T00:51:47;8.27;;;6.97;;
10910;SDS011;5508;49.150;11.030;2023-09-08T00:54:48;9.60;;;7.00;;
10910;SDS011;5508;49.150;11.030;2023-09-08T00:57:48;8.10;;;7.10;;
10910;SDS011;5508;49.150;11.030;2023-09-08T01:00:49;8.87;;;7.90;;
10910;SDS011;5508;49.150;11.030;2023-09-08T01:03:49;11.93;;;8.30;;
10910;SDS011;5508;49.150;11.030;2023-09-08T01:06:50;8.03;;;7.03;;
10910;SDS011;5508;49.150;11.030;2023-09-08T01:09:51;11.37;;;7.70;;
10910;SDS011;5508;49.150;11.030;2023-09-08T01:12:52;9.37;;;8.07;;
10910;SDS011;5508;49.150;11.030;2023-09-08T01:15:53;11.27;;;7.23;;
10910;SDS011;5508;49.150;11.030;2023-09-08T01:18:53;9.77;;;7.70;;
10910;SDS011;5508;49.150;11.030;2023-09-08T01:28:11;7.67;;;6.97;;
10910;SDS011;5508;49.150;11.030;2023-09-08T01:31:12;8.00;;;7.27;;
10910;SDS011;5508;49.150;11.030;2023-09-08T01:34:13;8.47;;;7.40;;
10910;SDS011;5508;49.150;11.030;2023-09-08T01:37:14;8.50;;;7.07;;
10910;SDS011;5508;49.150;11.030;2023-09-08T01:40:15;9.17;;;6.60;;
10910;SDS011;5508;49.150;11.030;2023-09-08T01:43:16;8.03;;;7.10;;
10910;SDS011;5508;49.150;11.030;2023-09-08T01:46:16;9.17;;;7.53;;
10910;SDS011;5508;49.150;11.030;2023-09-08T01:49:17;8.57;;;7.77;;
10910;SDS011;5508;49.150;11.030;2023-09-08T01:52:17;8.53;;;7.00;;
10910;SDS011;5508;49.150;11.030;2023-09-08T01:55:18;8.77;;;7.40;;
10910;SDS011;5508;49.150;11.030;2023-09-08T01:58:19;7.87;;;7.07;;
10910;SDS011;5508;49.150;11.030;2023-09-08T02:01:19;8.10;;;7.33;;
10910;SDS011;5508;49.150;11.030;2023-09-08T02:04:20;7.97;;;7.17;;
10910;SDS011;5508;49.150;11.030;2023-09-08T02:07:20;11.27;;;7.40;;
10910;SDS011;5508;49.150;11.030;2023-09-08T02:10:21;8.53;;;7.30;;
10910;SDS011;5508;49.150;11.030;2023-09-08T02:13:22;7.63;;;6.80;;
10910;SDS011;5508;49.150;11.030;2023-09-08T02:16:22;7.93;;;6.80;;
10910;SDS011;5508;49.150;11.030;2023-09-08T02:19:23;8.50;;;7.27;;
10910;SDS011;5508;49.150;11.030;2023-09-08T02:22:23;9.67;;;7.87;;
10910;SDS011;5508;49.150;11.030;2023-09-08T02:25:24;9.80;;;6.80;;
10910;SDS011;5508;49.150;11.030;2023-09-08T02:28:25;9.93;;;7.20;;
10910;SDS011;5508;49.150;11.030;2023-09-08T02:31:28;10.20;;;6.80;;
10910;SDS011;5508;49.150;11.030;2023-09-08T02:34:29;8.13;;;7.33;;
10910;SDS011;5508;49.150;11.030;2023-09-08T02:37:29;8.63;;;7.50;;
10910;SDS011;5508;49.150;11.030;2023-09-08T02:40:30;8.57;;;7.13;;
10910;SDS011;5508;49.150;11.030;2023-09-08T02:43:30;8.03;;;7.23;;
10910;SDS011;5508;49.150;11.030;2023-09-08T02:46:31;8.03;;;7.23;;
10910;SDS011;5508;49.150;11.030;2023-09-08T02:49:32;9.40;;;7.53;;
10910;SDS011;5508;49.150;11.030;2023-09-08T02:52:32;8.13;;;7.33;;
10910;SDS011;5508;49.150;11.030;2023-09-08T02:55:33;8.53;;;7.30;;
10910;SDS011;5508;49.150;11.030;2023-09-08T02:58:34;7.60;;;6.90;;
10910;SDS011;5508;49.150;11.030;2023-09-08T03:01:34;9.63;;;6.63;;
10910;SDS011;5508;49.150;11.030;2023-09-08T03:04:35;15.97;;;11.43;;
10910;SDS011;5508;49.150;11.030;2023-09-08T03:07:35;10.17;;;8.03;;
10910;SDS011;5508;49.150;11.030;2023-09-08T03:10:37;9.67;;;8.23;;
10910;SDS011;5508;49.150;11.030;2023-09-08T03:13:38;8.00;;;7.20;;
10910;SDS011;5508;49.150;11.030;2023-09-08T03:16:38;8.50;;;7.13;;
10910;SDS011;5508;49.150;11.030;2023-09-08T03:19:39;8.63;;;7.73;;
10910;SDS011;5508;49.150;11.030;2023-09-08T03:22:40;10.63;;;8.20;;
10910;SDS011;5508;49.150;11.030;2023-09-08T03:25:40;8.00;;;6.83;;
10910;SDS011;5508;49.150;11.030;2023-09-08T03:28:41;9.33;;;7.43;;
10910;SDS011;5508;49.150;11.030;2023-09-08T03:31:42;8.83;;;7.67;;
10910;SDS011;5508;49.150;11.030;2023-09-08T03:34:43;7.90;;;7.10;;
10910;SDS011;5508;49.150;11.030;2023-09-08T03:37:44;8.20;;;6.97;;
10910;SDS011;5508;49.150;11.030;2023-09-08T03:40:44;9.30;;;7.60;;
10910;SDS011;5508;49.150;11.030;2023-09-08T03:43:45;8.77;;;7.33;;
10910;SDS011;5508;49.150;11.030;2023-09-08T03:46:45;7.97;;;7.17;;
10910;SDS011;5508;49.150;11.030;2023-09-08T03:49:46;10.77;;;6.93;;
10910;SDS011;5508;49.150;11.030;2023-09-08T03:52:47;8.73;;;7.43;;
10910;SDS011;5508;49.150;11.030;2023-09-08T03:55:47;7.83;;;7.03;;
10910;SDS011;5508;49.150;11.030;2023-09-08T03:58:48;8.97;;;7.07;;
10910;SDS011;5508;49.150;11.030;2023-09-08T04:01:49;8.43;;;7.33;;
10910;SDS011;5508;49.150;11.030;2023-09-08T04:04:49;8.30;;;7.50;;
10910;SDS011;5508;49.150;11.030;2023-09-08T04:07:50;8.40;;;7.60;;
10910;SDS011;5508;49.150;11.030;2023-09-08T04:10:50;8.53;;;7.63;;
10910;SDS011;5508;49.150;11.030;2023-09-08T04:13:51;10.93;;;7.70;;
10910;SDS011;5508;49.150;11.030;2023-09-08T04:16:52;12.07;;;8.07;;
10910;SDS011;5508;49.150;11.030;2023-09-08T04:19:53;9.40;;;8.50;;
10910;SDS011;5508;49.150;11.030;2023-09-08T04:22:53;8.33;;;7.53;;
10910;SDS011;5508;49.150;11.030;2023-09-08T04:25:54;11.57;;;8.07;;
10910;SDS011;5508;49.150;11.030;2023-09-08T04:28:54;10.40;;;8.90;;
10910;SDS011;5508;49.150;11.030;2023-09-08T04:31:55;8.07;;;7.17;;
10910;SDS011;5508;49.150;11.030;2023-09-08T04:34:56;9.13;;;8.23;;
10910;SDS011;5508;49.150;11.030;2023-09-08T04:37:56;10.93;;;8.20;;
10910;SDS011;5508;49.150;11.030;2023-09-08T04:40:57;8.33;;;7.53;;
10910;SDS011;5508;49.150;11.030;2023-09-08T04:43:57;13.63;;;9.30;;
10910;SDS011;5508;49.150;11.030;2023-09-08T04:46:58;12.20;;;8.33;;
10910;SDS011;5508;49.150;11.030;2023-09-08T04:49:59;9.03;;;8.13;;
10910;SDS011;5508;49.150;11.030;2023-09-08T04:53:00;9.47;;;8.33;;
10910;SDS011;5508;49.150;11.030;2023-09-08T04:56:00;8.43;;;7.50;;
10910;SDS011;5508;49.150;11.030;2023-09-08T04:59:01;8.30;;;7.50;;
10910;SDS011;5508;49.150;11.030;2023-09-08T05:02:02;9.53;;;8.53;;
10910;SDS011;5508;49.150;11.030;2023-09-08T05:05:03;10.38;;;9.35;;
10910;SDS011;5508;49.150;11.030;2023-09-08T05:08:04;11.53;;;8.90;;
10910;SDS011;5508;49.150;11.030;2023-09-08T05:11:05;9.40;;;7.30;;
10910;SDS011;5508;49.150;11.030;2023-09-08T05:14:05;7.83;;;7.03;;
10910;SDS011;5508;49.150;11.030;2023-09-08T05:17:06;8.03;;;6.93;;
10910;SDS011;5508;49.150;11.030;2023-09-08T05:20:07;7.60;;;6.90;;
10910;SDS011;5508;49.150;11.030;2023-09-08T05:23:07;9.03;;;7.10;;
10910;SDS011;5508;49.150;11.030;2023-09-08T05:26:08;8.20;;;7.40;;
10910;SDS011;5508;49.150;11.030;2023-09-08T05:29:09;9.07;;;8.17;;
10910;SDS011;5508;49.150;11.030;2023-09-08T05:32:09;9.07;;;7.50;;
10910;SDS011;5508;49.150;11.030;2023-09-08T05:35:10;9.77;;;7.87;;
10910;SDS011;5508;49.150;11.030;2023-09-08T05:38:11;10.97;;;8.27;;
10910;SDS011;5508;49.150;11.030;2023-09-08T05:41:11;9.13;;;8.17;;
10910;SDS011;5508;49.150;11.030;2023-09-08T05:44:12;10.00;;;8.00;;
10910;SDS011;5508;49.150;11.030;2023-09-08T05:47:13;10.53;;;7.40;;
10910;SDS011;5508;49.150;11.030;2023-09-08T05:50:13;9.57;;;8.17;;
10910;SDS011;5508;49.150;11.030;2023-09-08T05:53:14;8.90;;;8.00;;
10910;SDS011;5508;49.150;11.030;2023-09-08T05:56:14;10.87;;;7.97;;
10910;SDS011;5508;49.150;11.030;2023-09-08T05:59:15;8.87;;;7.97;;
10910;SDS011;5508;49.150;11.030;2023-09-08T06:02:16;12.57;;;8.07;;
10910;SDS011;5508;49.150;11.030;2023-09-08T06:05:16;10.77;;;8.83;;
10910;SDS011;5508;49.150;11.030;2023-09-08T06:08:17;13.17;;;8.97;;
10910;SDS011;5508;49.150;11.030;2023-09-08T06:11:18;8.60;;;7.70;;
10910;SDS011;5508;49.150;11.030;2023-09-08T06:14:18;11.20;;;7.90;;
10910;SDS011;5508;49.150;11.030;2023-09-08T06:17:19;11.53;;;8.13;;
10910;SDS011;5508;49.150;11.030;2023-09-08T06:20:19;12.30;;;8.67;;
10910;SDS011;5508;49.150;11.030;2023-09-08T06:23:21;9.87;;;8.83;;
10910;SDS011;5508;49.150;11.030;2023-09-08T06:26:21;18.40;;;10.10;;
10910;SDS011;5508;49.150;11.030;2023-09-08T06:29:22;11.17;;;8.07;;
10910;SDS011;5508;49.150;11.030;2023-09-08T06:32:23;13.23;;;8.73;;
10910;SDS011;5508;49.150;11.030;2023-09-08T06:35:23;13.23;;;9.43;;
10910;SDS011;5508;49.150;11.030;2023-09-08T06:38:26;11.87;;;8.50;;
10910;SDS011;5508;49.150;11.030;2023-09-08T06:41:27;10.93;;;8.53;;
10910;SDS011;5508;49.150;11.030;2023-09-08T06:44:28;10.67;;;7.90;;
10910;SDS011;5508;49.150;11.030;2023-09-08T06:47:29;11.13;;;8.50;;
10910;SDS011;5508;49.150;11.030;2023-09-08T06:50:29;9.17;;;8.27;;
10910;SDS011;5508;49.150;11.030;2023-09-08T06:53:30;12.53;;;9.03;;
10910;SDS011;5508;49.150;11.030;2023-09-08T06:56:31;10.63;;;8.33;;
10910;SDS011;5508;49.150;11.030;2023-09-08T06:59:31;11.67;;;8.47;;
10910;SDS011;5508;49.150;11.030;2023-09-08T07:02:32;11.57;;;9.23;;
10910;SDS011;5508;49.150;11.030;2023-09-08T07:05:32;10.00;;;8.20;;
10910;SDS011;5508;49.150;11.030;2023-09-08T07:08:33;13.03;;;9.27;;
10910;SDS011;5508;49.150;11.030;2023-09-08T07:11:34;13.47;;;9.83;;
10910;SDS011;5508;49.150;11.030;2023-09-08T07:14:34;11.17;;;9.37;;
10910;SDS011;5508;49.150;11.030;2023-09-08T07:17:35;11.43;;;9.07;;
10910;SDS011;5508;49.150;11.030;2023-09-08T07:20:35;10.10;;;9.00;;
10910;SDS011;5508;49.150;11.030;2023-09-08T07:23:36;9.93;;;8.93;;
10910;SDS011;5508;49.150;11.030;2023-09-08T07:26:37;12.20;;;10.33;;
10910;SDS011;5508;49.150;11.030;2023-09-08T07:29:37;16.33;;;9.37;;
10910;SDS011;5508;49.150;11.030;2023-09-08T07:32:38;12.73;;;8.77;;
10910;SDS011;5508;49.150;11.030;2023-09-08T07:35:39;10.00;;;8.03;;
10910;SDS011;5508;49.150;11.030;2023-09-08T07:38:40;8.60;;;7.77;;
10910;SDS011;5508;49.150;11.030;2023-09-08T07:41:41;10.00;;;7.20;;
10910;SDS011;5508;49.150;11.030;2023-09-08T07:44:41;15.00;;;7.93;;
10910;SDS011;5508;49.150;11.030;2023-09-08T07:47:42;7.63;;;6.93;;
10910;SDS011;5508;49.150;11.030;2023-09-08T07:50:44;7.33;;;6.53;;
10910;SDS011;5508;49.150;11.030;2023-09-08T07:53:44;7.67;;;6.87;;
10910;SDS011;5508;49.150;11.030;2023-09-08T07:56:45;6.87;;;6.17;;
10910;SDS011;5508;49.150;11.030;2023-09-08T07:59:45;7.13;;;6.43;;
10910;SDS011;5508;49.150;11.030;2023-09-08T08:02:47;8.87;;;6.30;;
10910;SDS011;5508;49.150;11.030;2023-09-08T08:05:49;6.77;;;5.77;;
10910;SDS011;5508;49.150;11.030;2023-09-08T08:08:49;9.67;;;6.43;;
10910;SDS011;5508;49.150;11.030;2023-09-08T08:11:50;7.83;;;7.13;;
10910;SDS011;5508;49.150;11.030;2023-09-08T08:14:50;8.13;;;5.80;;
10910;SDS011;5508;49.150;11.030;2023-09-08T08:17:51;6.43;;;5.43;;
10910;SDS011;5508;49.150;11.030;2023-09-08T08:20:51;6.30;;;5.53;;
10910;SDS011;5508;49.150;11.030;2023-09-08T08:23:52;5.80;;;5.13;;
10910;SDS011;5508;49.150;11.030;2023-09-08T08:26:53;7.50;;;5.20;;
10910;SDS011;5508;49.150;11.030;2023-09-08T08:29:53;7.63;;;5.10;;
10910;SDS011;5508;49.150;11.030;2023-09-08T08:32:54;4.13;;;3.63;;
10910;SDS011;5508;49.150;11.030;2023-09-08T08:35:55;4.47;;;3.88;;
10910;SDS011;5508;49.150;11.030;2023-09-08T08:38:56;7.07;;;3.92;;
10910;SDS011;5508;49.150;11.030;2023-09-08T08:41:56;4.45;;;3.50;;
10910;SDS011;5508;49.150;11.030;2023-09-08T08:44:58;6.53;;;4.35;;
10910;SDS011;5508;49.150;11.030;2023-09-08T08:47:59;4.35;;;3.95;;
10910;SDS011;5508;49.150;11.030;2023-09-08T08:51:01;5.95;;;4.13;;
10910;SDS011;5508;49.150;11.030;2023-09-08T08:54:02;7.40;;;3.83;;
10910;SDS011;5508;49.150;11.030;2023-09-08T08:57:04;7.68;;;3.83;;
10910;SDS011;5508;49.150;11.030;2023-09-08T09:00:10;5.25;;;3.83;;
10910;SDS011;5508;49.150;11.030;2023-09-08T09:03:12;6.68;;;3.97;;
10910;SDS011;5508;49.150;11.030;2023-09-08T09:06:14;8.93;;;4.20;;
10910;SDS011;5508;49.150;11.030;2023-09-08T09:09:14;5.35;;;4.00;;
10910;SDS011;5508;49.150;11.030;2023-09-08T09:12:15;5.38;;;4.00;;
10910;SDS011;5508;49.150;11.030;2023-09-08T09:15:20;5.63;;;3.88;;
10910;SDS011;5508;49.150;11.030;2023-09-08T09:18:31;6.40;;;4.00;;
10910;SDS011;5508;49.150;11.030;2023-09-08T09:21:45;4.80;;;3.83;;
10910;SDS011;5508;49.150;11.030;2023-09-08T09:24:47;4.28;;;3.88;;
10910;SDS011;5508;49.150;11.030;2023-09-08T09:27:51;4.95;;;4.25;;
10910;SDS011;5508;49.150;11.030;2023-09-08T09:30:56;4.15;;;3.75;;
10910;SDS011;5508;49.150;11.030;2023-09-08T09:34:03;3.78;;;3.35;;
10910;SDS011;5508;49.150;11.030;2023-09-08T09:37:05;5.50;;;3.50;;
10910;SDS011;5508;49.150;11.030;2023-09-08T09:40:06;4.30;;;3.70;;
10910;SDS011;5508;49.150;11.030;2023-09-08T09:43:07;6.15;;;4.13;;
10910;SDS011;5508;49.150;11.030;2023-09-08T09:46:08;5.15;;;4.10;;
10910;SDS011;5508;49.150;11.030;2023-09-08T09:49:12;6.53;;;4.00;;
10910;SDS011;5508;49.150;11.030;2023-09-08T09:52:15;4.90;;;4.00;;
10910;SDS011;5508;49.150;11.030;2023-09-08T09:55:22;5.85;;;3.65;;
10910;SDS011;5508;49.150;11.030;2023-09-08T09:58:24;6.50;;;3.47;;
10910;SDS011;5508;49.150;11.030;2023-09-08T10:01:26;6.05;;;3.85;;
10910;SDS011;5508;49.150;11.030;2023-09-08T10:04:27;6.05;;;3.63;;
10910;SDS011;5508;49.150;11.030;2023-09-08T10:07:28;4.82;;;3.60;;
10910;SDS011;5508;49.150;11.030;2023-09-08T10:10:29;6.50;;;3.70;;
10910;SDS011;5508;49.150;11.030;2023-09-08T10:13:31;6.10;;;4.43;;
10910;SDS011;5508;49.150;11.030;2023-09-08T10:16:45;3.78;;;3.45;;
10910;SDS011;5508;49.150;11.030;2023-09-08T10:19:49;4.32;;;3.92;;
10910;SDS011;5508;49.150;11.030;2023-09-08T10:22:53;5.65;;;3.70;;
10910;SDS011;5508;49.150;11.030;2023-09-08T10:25:57;8.15;;;3.70;;
10910;SDS011;5508;49.150;11.030;2023-09-08T10:29:04;4.30;;;3.20;;
10910;SDS011;5508;49.150;11.030;2023-09-08T10:32:05;5.10;;;3.83;;
10910;SDS011;5508;49.150;11.030;2023-09-08T10:35:08;5.70;;;3.92;;
10910;SDS011;5508;49.150;11.030;2023-09-08T10:38:22;4.85;;;4.13;;
10910;SDS011;5508;49.150;11.030;2023-09-08T10:41:26;3.45;;;3.15;;
10910;SDS011;5508;49.150;11.030;2023-09-08T10:44:28;5.18;;;3.45;;
10910;SDS011;5508;49.150;11.030;2023-09-08T10:47:54;4.25;;;3.17;;
10910;SDS011;5508;49.150;11.030;2023-09-08T10:50:58;4.05;;;3.65;;
10910;SDS011;5508;49.150;11.030;2023-09-08T10:53:59;4.25;;;3.53;;
10910;SDS011;5508;49.150;11.030;2023-09-08T10:57:00;6.35;;;4.00;;
10910;SDS011;5508;49.150;11.030;2023-09-08T11:00:02;3.97;;;3.40;;
10910;SDS011;5508;49.150;11.030;2023-09-08T11:03:05;5.05;;;3.15;;
10910;SDS011;5508;49.150;11.030;2023-09-08T11:06:06;4.07;;;3.38;;
10910;SDS011;5508;49.150;11.030;2023-09-08T11:09:08;4.68;;;3.25;;
10910;SDS011;5508;49.150;11.030;2023-09-08T11:12:09;5.18;;;3.10;;
10910;SDS011;5508;49.150;11.030;2023-09-08T11:15:10;4.50;;;3.20;;
10910;SDS011;5508;49.150;11.030;2023-09-08T11:18:11;3.35;;;3.05;;
10910;SDS011;5508;49.150;11.030;2023-09-08T11:21:11;6.72;;;3.50;;
10910;SDS011;5508;49.150;11.030;2023-09-08T11:24:12;5.85;;;3.88;;
10910;SDS011;5508;49.150;11.030;2023-09-08T11:27:14;5.18;;;3.28;;
10910;SDS011;5508;49.150;11.030;2023-09-08T11:30:15;5.45;;;3.25;;
10910;SDS011;5508;49.150;11.030;2023-09-08T11:33:16;5.88;;;3.75;;
10910;SDS011;5508;49.150;11.030;2023-09-08T11:36:18;3.80;;;3.33;;
10910;SDS011;5508;49.150;11.030;2023-09-08T11:39:22;3.55;;;3.25;;
10910;SDS011;5508;49.150;11.030;2023-09-08T11:42:24;5.47;;;3.60;;
10910;SDS011;5508;49.150;11.030;2023-09-08T11:45:27;3.63;;;3.30;;
10910;SDS011;5508;49.150;11.030;2023-09-08T11:48:27;5.28;;;3.17;;
10910;SDS011;5508;49.150;11.030;2023-09-08T11:51:28;5.65;;;3.88;;
10910;SDS011;5508;49.150;11.030;2023-09-08T11:54:32;4.72;;;3.35;;
10910;SDS011;5508;49.150;11.030;2023-09-08T11:57:34;4.43;;;3.20;;
10910;SDS011;5508;49.150;11.030;2023-09-08T12:00:36;5.25;;;3.08;;
10910;SDS011;5508;49.150;11.030;2023-09-08T12:03:50;6.88;;;3.40;;
10910;SDS011;5508;49.150;11.030;2023-09-08T12:06:55;5.28;;;3.90;;
10910;SDS011;5508;49.150;11.030;2023-09-08T12:09:55;4.53;;;3.55;;
10910;SDS011;5508;49.150;11.030;2023-09-08T12:12:58;4.22;;;3.33;;
10910;SDS011;5508;49.150;11.030;2023-09-08T12:16:00;3.70;;;3.40;;
10910;SDS011;5508;49.150;11.030;2023-09-08T12:19:00;3.55;;;3.25;;
10910;SDS011;5508;49.150;11.030;2023-09-08T12:22:01;4.50;;;3.22;;
10910;SDS011;5508;49.150;11.030;2023-09-08T12:25:07;3.70;;;3.22;;
10910;SDS011;5508;49.150;11.030;2023-09-08T12:28:08;3.75;;;3.28;;
10910;SDS011;5508;49.150;11.030;2023-09-08T12:31:09;6.40;;;3.42;;
10910;SDS011;5508;49.150;11.030;2023-09-08T12:34:10;3.85;;;3.42;;
10910;SDS011;5508;49.150;11.030;2023-09-08T12:37:13;5.25;;;3.38;;
10910;SDS011;5508;49.150;11.030;2023-09-08T12:40:13;3.85;;;3.40;;
10910;SDS011;5508;49.150;11.030;2023-09-08T12:43:15;6.43;;;3.45;;
10910;SDS011;5508;49.150;11.030;2023-09-08T12:46:16;8.45;;;3.45;;
10910;SDS011;5508;49.150;11.030;2023-09-08T12:49:18;4.75;;;3.60;;
10910;SDS011;5508;49.150;11.030;2023-09-08T12:52:19;5.28;;;3.72;;
10910;SDS011;5508;49.150;11.030;2023-09-08T12:55:19;4.00;;;3.45;;
10910;SDS011;5508;49.150;11.030;2023-09-08T12:58:20;3.42;;;3.10;;
10910;SDS011;5508;49.150;11.030;2023-09-08T13:01:21;6.97;;;3.70;;
10910;SDS011;5508;49.150;11.030;2023-09-08T13:04:21;4.70;;;3.30;;
10910;SDS011;5508;49.150;11.030;2023-09-08T13:07:22;4.47;;;3.60;;
10910;SDS011;5508;49.150;11.030;2023-09-08T13:10:23;4.13;;;3.53;;
10910;SDS011;5508;49.150;11.030;2023-09-08T13:13:24;3.75;;;3.30;;
10910;SDS011;5508;49.150;11.030;2023-09-08T13:16:24;6.03;;;3.40;;
10910;SDS011;5508;49.150;11.030;2023-09-08T13:19:25;4.22;;;3.58;;
10910;SDS011;5508;49.150;11.030;2023-09-08T13:22:25;5.93;;;3.60;;
10910;SDS011;5508;49.150;11.030;2023-09-08T13:25:26;4.80;;;3.17;;
10910;SDS011;5508;49.150;11.030;2023-09-08T13:28:26;6.78;;;3.72;;
10910;SDS011;5508;49.150;11.030;2023-09-08T13:31:27;4.07;;;3.50;;
10910;SDS011;5508;49.150;11.030;2023-09-08T13:34:28;3.92;;;3.53;;
10910;SDS011;5508;49.150;11.030;2023-09-08T13:37:28;4.13;;;3.60;;
10910;SDS011;5508;49.150;11.030;2023-09-08T13:40:30;3.60;;;3.30;;
10910;SDS011;5508;49.150;11.030;2023-09-08T13:43:31;4.55;;;3.97;;
10910;SDS011;5508;49.150;11.030;2023-09-08T13:46:31;5.72;;;3.63;;
10910;SDS011;5508;49.150;11.030;2023-09-08T13:49:32;4.80;;;4.22;;
10910;SDS011;5508;49.150;11.030;2023-09-08T13:52:32;3.92;;;3.53;;
10910;SDS011;5508;49.150;11.030;2023-09-08T13:55:33;3.92;;;3.50;;
10910;SDS011;5508;49.150;11.030;2023-09-08T13:58:33;6.00;;;3.38;;
10910;SDS011;5508;49.150;11.030;2023-09-08T14:01:35;5.15;;;3.60;;
10910;SDS011;5508;49.150;11.030;2023-09-08T14:04:36;6.13;;;3.17;;
10910;SDS011;5508;49.150;11.030;2023-09-08T14:07:39;4.53;;;3.45;;
10910;SDS011;5508;49.150;11.030;2023-09-08T14:10:40;3.78;;;3.42;;
10910;SDS011;5508;49.150;11.030;2023-09-08T14:13:41;3.85;;;3.42;;
10910;SDS011;5508;49.150;11.030;2023-09-08T14:16:42;5.10;;;3.45;;
10910;SDS011;5508;49.150;11.030;2023-09-08T14:19:44;5.85;;;3.53;;
10910;SDS011;5508;49.150;11.030;2023-09-08T14:22:44;4.35;;;3.28;;
10910;SDS011;5508;49.150;11.030;2023-09-08T14:25:45;5.88;;;3.75;;
10910;SDS011;5508;49.150;11.030;2023-09-08T14:28:45;3.50;;;3.20;;
10910;SDS011;5508;49.150;11.030;2023-09-08T14:31:46;4.72;;;3.40;;
10910;SDS011;5508;49.150;11.030;2023-09-08T14:34:48;6.05;;;3.60;;
10910;SDS011;5508;49.150;11.030;2023-09-08T14:37:49;6.07;;;3.30;;
10910;SDS011;5508;49.150;11.030;2023-09-08T14:40:59;3.85;;;3.53;;
10910;SDS011;5508;49.150;11.030;2023-09-08T14:44:00;4.40;;;3.33;;
10910;SDS011;5508;49.150;11.030;2023-09-08T14:47:01;5.63;;;3.78;;
10910;SDS011;5508;49.150;11.030;2023-09-08T14:50:02;5.32;;;3.50;;
10910;SDS011;5508;49.150;11.030;2023-09-08T14:53:03;6.82;;;3.42;;
10910;SDS011;5508;49.150;11.030;2023-09-08T14:56:04;3.88;;;3.20;;
10910;SDS011;5508;49.150;11.030;2023-09-08T14:59:05;4.50;;;3.00;;
10910;SDS011;5508;49.150;11.030;2023-09-08T15:02:07;5.90;;;3.42;;
10910;SDS011;5508;49.150;11.030;2023-09-08T15:05:08;4.63;;;3.28;;
10910;SDS011;5508;49.150;11.030;2023-09-08T15:08:09;4.35;;;3.30;;
10910;SDS011;5508;49.150;11.030;2023-09-08T15:11:12;4.82;;;3.70;;
10910;SDS011;5508;49.150;11.030;2023-09-08T15:14:12;4.47;;;3.40;;
10910;SDS011;5508;49.150;11.030;2023-09-08T15:17:13;3.80;;;3.42;;
10910;SDS011;5508;49.150;11.030;2023-09-08T15:20:14;3.75;;;3.30;;
10910;SDS011;5508;49.150;11.030;2023-09-08T15:23:14;4.30;;;3.20;;
10910;SDS011;5508;49.150;11.030;2023-09-08T15:26:15;4.15;;;3.67;;
10910;SDS011;5508;49.150;11.030;2023-09-08T15:29:15;3.85;;;3.47;;
10910;SDS011;5508;49.150;11.030;2023-09-08T15:32:17;5.85;;;3.40;;
10910;SDS011;5508;49.150;11.030;2023-09-08T15:35:18;4.82;;;3.35;;
10910;SDS011;5508;49.150;11.030;2023-09-08T15:38:18;7.47;;;3.38;;
10910;SDS011;5508;49.150;11.030;2023-09-08T15:41:20;5.38;;;3.20;;
10910;SDS011;5508;49.150;11.030;2023-09-08T15:44:20;5.65;;;3.35;;
10910;SDS011;5508;49.150;11.030;2023-09-08T15:47:21;3.33;;;3.03;;
10910;SDS011;5508;49.150;11.030;2023-09-08T15:50:21;5.13;;;3.47;;
10910;SDS011;5508;49.150;11.030;2023-09-08T15:53:22;4.20;;;3.05;;
10910;SDS011;5508;49.150;11.030;2023-09-08T15:56:22;4.68;;;3.00;;
10910;SDS011;5508;49.150;11.030;2023-09-08T15:59:23;4.10;;;3.33;;
10910;SDS011;5508;49.150;11.030;2023-09-08T16:02:24;3.90;;;3.25;;
10910;SDS011;5508;49.150;11.030;2023-09-08T16:05:24;5.45;;;3.58;;
10910;SDS011;5508;49.150;11.030;2023-09-08T16:08:25;3.92;;;3.53;;
10910;SDS011;5508;49.150;11.030;2023-09-08T16:11:25;4.65;;;3.13;;
10910;SDS011;5508;49.150;11.030;2023-09-08T16:14:26;4.43;;;3.42;;
10910;SDS011;5508;49.150;11.030;2023-09-08T16:17:27;4.22;;;3.55;;
10910;SDS011;5508;49.150;11.030;2023-09-08T16:20:28;3.78;;;3.40;;
10910;SDS011;5508;49.150;11.030;2023-09-08T16:23:29;4.03;;;3.30;;
10910;SDS011;5508;49.150;11.030;2023-09-08T16:26:29;5.80;;;3.55;;
10910;SDS011;5508;49.150;11.030;2023-09-08T16:29:30;3.67;;;3.10;;
10910;SDS011;5508;49.150;11.030;2023-09-08T16:32:31;5.70;;;3.40;;
10910;SDS011;5508;49.150;11.030;2023-09-08T16:35:32;6.10;;;3.70;;
10910;SDS011;5508;49.150;11.030;2023-09-08T16:38:33;5.65;;;3.30;;
10910;SDS011;5508;49.150;11.030;2023-09-08T16:41:34;4.47;;;3.45;;
10910;SDS011;5508;49.150;11.030;2023-09-08T16:44:35;3.53;;;2.90;;
10910;SDS011;5508;49.150;11.030;2023-09-08T16:47:36;4.65;;;3.30;;
10910;SDS011;5508;49.150;11.030;2023-09-08T16:50:37;7.68;;;3.78;;
10910;SDS011;5508;49.150;11.030;2023-09-08T16:53:37;6.05;;;3.40;;
10910;SDS011;5508;49.150;11.030;2023-09-08T16:56:38;5.93;;;3.83;;
10910;SDS011;5508;49.150;11.030;2023-09-08T16:59:38;4.97;;;3.20;;
10910;SDS011;5508;49.150;11.030;2023-09-08T17:02:39;6.50;;;3.95;;
10910;SDS011;5508;49.150;11.030;2023-09-08T17:05:40;4.97;;;2.90;;
10910;SDS011;5508;49.150;11.030;2023-09-08T17:08:40;5.50;;;3.58;;
10910;SDS011;5508;49.150;11.030;2023-09-08T17:11:41;5.35;;;4.10;;
10910;SDS011;5508;49.150;11.030;2023-09-08T17:14:41;8.25;;;3.80;;
10910;SDS011;5508;49.150;11.030;2023-09-08T17:17:42;5.63;;;3.72;;
10910;SDS011;5508;49.150;11.030;2023-09-08T17:20:43;7.75;;;3.53;;
10910;SDS011;5508;49.150;11.030;2023-09-08T17:23:43;9.25;;;3.97;;
10910;SDS011;5508;49.150;11.030;2023-09-08T17:26:44;6.70;;;4.13;;
10910;SDS011;5508;49.150;11.030;2023-09-08T17:29:45;8.60;;;5.05;;
10910;SDS011;5508;49.150;11.030;2023-09-08T17:32:45;11.48;;;4.97;;
10910;SDS011;5508;49.150;11.030;2023-09-08T17:35:46;6.10;;;4.20;;
10910;SDS011;5508;49.150;11.030;2023-09-08T17:38:47;4.18;;;3.78;;
10910;SDS011;5508;49.150;11.030;2023-09-08T17:41:48;5.63;;;4.00;;
10910;SDS011;5508;49.150;11.030;2023-09-08T17:44:49;6.88;;;4.30;;
10910;SDS011;5508;49.150;11.030;2023-09-08T17:47:49;9.73;;;4.80;;
10910;SDS011;5508;49.150;11.030;2023-09-08T17:50:50;6.68;;;4.22;;
10910;SDS011;5508;49.150;11.030;2023-09-08T17:53:50;7.55;;;3.50;;
10910;SDS011;5508;49.150;11.030;2023-09-08T17:56:51;6.47;;;4.18;;
10910;SDS011;5508;49.150;11.030;2023-09-08T17:59:51;5.30;;;4.65;;
10910;SDS011;5508;49.150;11.030;2023-09-08T18:02:52;4.53;;;3.80;;
10910;SDS011;5508;49.150;11.030;2023-09-08T18:05:53;4.47;;;4.07;;
10910;SDS011;5508;49.150;11.030;2023-09-08T18:08:53;5.80;;;4.47;;
10910;SDS011;5508;49.150;11.030;2023-09-08T18:11:54;5.43;;;4.57;;
10910;SDS011;5508;49.150;11.030;2023-09-08T18:14:54;5.97;;;3.90;;